createdAt,value
2024-05-09T00:00:44.059Z,63.02
2024-05-09T00:03:31.765Z,62.88
2024-05-09T00:05:59.406Z,64.16
2024-05-09T00:08:27.083Z,63.33
2024-05-09T00:10:54.909Z,63.61
2024-05-09T00:13:22.509Z,64.05
2024-05-09T00:15:49.921Z,64.11
2024-05-09T00:18:17.704Z,64.41
2024-05-09T00:20:45.565Z,64.59
2024-05-09T00:23:14.129Z,66.40
2024-05-09T00:25:45.165Z,66.36
2024-05-09T00:28:13.949Z,67.21
2024-05-09T00:30:41.563Z,66.92
2024-05-09T00:33:10.660Z,67.22
2024-05-09T00:35:39.607Z,66.75
2024-05-09T00:38:08.023Z,66.57
2024-05-09T00:40:40.901Z,66.68
2024-05-09T00:43:13.183Z,67.39
2024-05-09T00:45:42.975Z,66.52
2024-05-09T00:48:15.244Z,66.47
2024-05-09T00:50:46.923Z,66.32
2024-05-09T00:53:16.867Z,65.93
2024-05-09T00:55:45.499Z,65.88
2024-05-09T00:58:17.951Z,66.40
2024-05-09T01:00:46.403Z,66.98
2024-05-09T01:03:14.586Z,67.43
2024-05-09T01:05:44.329Z,67.34
2024-05-09T01:08:12.978Z,69.44
2024-05-09T01:10:44.812Z,68.71
2024-05-09T01:13:13.681Z,69.17
2024-05-09T01:15:41.736Z,70.03
2024-05-09T01:18:14.085Z,69.55
2024-05-09T01:20:44.332Z,70.43
2024-05-09T01:23:15.162Z,70.04
2024-05-09T01:25:45.608Z,69.37
2024-05-09T01:28:14.799Z,70.64
2024-05-09T01:30:42.428Z,69.88
2024-05-09T01:33:11.785Z,70.15
2024-05-09T01:35:40.625Z,71.00
2024-05-09T01:38:13.250Z,71.27
2024-05-09T01:40:42.659Z,72.12
2024-05-09T01:43:11.525Z,71.15
2024-05-09T01:45:41.462Z,70.88
2024-05-09T01:48:10.457Z,70.78
2024-05-09T01:50:41.737Z,70.72
2024-05-09T01:53:15.012Z,70.07
2024-05-09T01:55:43.990Z,70.21
2024-05-09T01:58:12.913Z,71.24
2024-05-09T02:00:42.661Z,71.59
2024-05-09T02:03:15.517Z,71.55
2024-05-09T02:05:47.449Z,71.70
2024-05-09T02:08:19.312Z,71.85
2024-05-09T02:10:49.245Z,71.99
2024-05-09T02:13:18.765Z,72.38
2024-05-09T02:15:46.525Z,72.86
2024-05-09T02:18:14.491Z,73.49
2024-05-09T02:20:43.031Z,72.93
2024-05-09T02:23:11.417Z,73.30
2024-05-09T02:25:39.935Z,73.85
2024-05-09T02:28:07.990Z,72.96
2024-05-09T02:30:40.110Z,73.51
2024-05-09T02:33:12.000Z,73.83
2024-05-09T02:35:42.807Z,73.28
2024-05-09T02:38:11.273Z,73.45
2024-05-09T02:40:40.079Z,76.02
2024-05-09T02:43:10.575Z,74.23
2024-05-09T02:45:39.713Z,74.28
2024-05-09T02:48:10.646Z,73.67
2024-05-09T02:50:40.471Z,73.76
2024-05-09T02:53:08.990Z,74.24
2024-05-09T02:55:41.709Z,77.08
2024-05-09T02:58:10.465Z,75.21
2024-05-09T03:00:41.253Z,75.35
2024-05-09T03:03:13.439Z,74.95
2024-05-09T03:05:44.765Z,74.92
2024-05-09T03:08:12.944Z,75.57
2024-05-09T03:10:40.786Z,76.02
2024-05-09T03:13:11.082Z,75.83
2024-05-09T03:15:39.306Z,75.89
2024-05-09T03:18:07.367Z,75.83
2024-05-09T03:20:36.355Z,75.74
2024-05-09T03:23:07.179Z,76.03
2024-05-09T03:25:35.006Z,76.75
2024-05-09T03:28:02.522Z,76.21
2024-05-09T03:30:38.770Z,77.16
2024-05-09T03:33:33.037Z,76.54
2024-05-09T03:36:02.431Z,77.37
2024-05-09T03:38:30.492Z,76.21
2024-05-09T03:40:58.465Z,75.48
2024-05-09T03:43:26.029Z,76.00
2024-05-09T03:45:53.468Z,75.27
2024-05-09T03:48:21.245Z,75.90
2024-05-09T03:50:50.392Z,74.51
2024-05-09T03:53:18.091Z,74.82
2024-05-09T03:55:47.922Z,74.83
2024-05-09T03:58:15.514Z,74.15
2024-05-09T04:00:43.117Z,74.49
2024-05-09T04:03:12.452Z,73.76
2024-05-09T04:05:45.797Z,75.66
2024-05-09T04:08:15.232Z,75.07
2024-05-09T04:10:43.438Z,74.28
2024-05-09T04:13:11.207Z,74.29
2024-05-09T04:15:39.531Z,75.58
2024-05-09T04:18:07.157Z,73.71
2024-05-09T04:20:39.104Z,72.63
2024-05-09T04:23:13.503Z,74.36
2024-05-09T04:25:43.300Z,74.11
2024-05-09T04:28:10.842Z,74.02
2024-05-09T04:30:40.898Z,74.13
2024-05-09T04:33:11.787Z,76.22
2024-05-09T04:35:44.800Z,74.50
2024-05-09T04:38:13.973Z,76.06
2024-05-09T04:40:42.254Z,73.38
2024-05-09T04:43:19.244Z,72.12
2024-05-09T04:45:46.980Z,72.05
2024-05-09T04:48:14.756Z,73.22
2024-05-09T04:50:42.619Z,74.17
2024-05-09T04:53:15.818Z,72.81
2024-05-09T04:55:43.436Z,70.45
2024-05-09T04:58:14.345Z,71.80
2024-05-09T05:00:43.471Z,70.47
2024-05-09T05:03:14.253Z,69.19
2024-05-09T05:05:45.810Z,68.77
2024-05-09T05:08:18.793Z,68.78
2024-05-09T05:10:48.258Z,69.53
2024-05-09T05:13:17.688Z,69.02
2024-05-09T05:15:46.829Z,68.57
2024-05-09T05:18:15.314Z,67.14
2024-05-09T05:20:43.318Z,67.27
2024-05-09T05:23:16.175Z,67.55
2024-05-09T05:25:44.477Z,65.13
2024-05-09T05:28:12.084Z,65.75
2024-05-09T05:30:41.117Z,64.82
2024-05-09T05:33:13.675Z,64.40
2024-05-09T05:35:42.019Z,64.53
2024-05-09T05:38:10.869Z,63.59
2024-05-09T05:40:39.875Z,63.56
2024-05-09T05:43:10.375Z,63.00
2024-05-09T05:45:39.018Z,63.66
2024-05-09T05:48:07.939Z,61.88
2024-05-09T05:50:37.859Z,61.66
2024-05-09T05:53:08.095Z,61.97
2024-05-09T05:55:37.249Z,62.20
2024-05-09T05:58:04.944Z,61.43
2024-05-09T06:00:38.777Z,58.91
2024-05-09T06:03:09.613Z,59.37
2024-05-09T06:05:45.859Z,60.21
2024-05-09T06:08:14.032Z,59.32
2024-05-09T06:10:42.488Z,59.87
2024-05-09T06:13:11.230Z,59.10
2024-05-09T06:15:40.086Z,59.13
2024-05-09T06:18:09.281Z,58.24
2024-05-09T06:20:39.496Z,58.00
2024-05-09T06:23:08.279Z,57.78
2024-05-09T06:25:36.342Z,56.12
2024-05-09T06:28:04.420Z,57.07
2024-05-09T06:30:38.627Z,56.64
2024-05-09T06:33:11.269Z,56.43
2024-05-09T06:35:40.988Z,56.87
2024-05-09T06:38:09.357Z,55.68
2024-05-09T06:40:42.365Z,54.91
2024-05-09T06:43:17.553Z,54.73
2024-05-09T06:45:48.922Z,54.30
2024-05-09T06:48:19.485Z,54.48
2024-05-09T06:50:47.554Z,54.02
2024-05-09T06:53:16.585Z,53.36
2024-05-09T06:55:44.259Z,52.99
2024-05-09T06:58:13.308Z,52.65
2024-05-09T07:00:42.091Z,52.78
2024-05-09T07:03:12.745Z,53.56
2024-05-09T07:05:42.513Z,53.43
2024-05-09T07:08:10.505Z,52.94
2024-05-09T07:10:38.552Z,51.70
2024-05-09T07:13:10.227Z,51.70
2024-05-09T07:15:38.118Z,51.41
2024-05-09T07:18:13.705Z,51.17
2024-05-09T07:20:42.219Z,49.34
2024-05-09T07:23:10.604Z,50.70
2024-05-09T07:25:39.966Z,49.18
2024-05-09T07:28:13.470Z,46.66
2024-05-09T07:30:41.682Z,48.84
2024-05-09T07:33:09.529Z,47.71
2024-05-09T07:35:37.357Z,47.70
2024-05-09T07:38:05.072Z,45.69
2024-05-09T07:40:36.209Z,44.88
2024-05-09T07:43:06.582Z,45.37
2024-05-09T07:53:37.024Z,44.39
2024-05-09T07:55:57.607Z,43.79
2024-05-09T07:58:28.278Z,42.76
2024-05-09T08:00:55.985Z,44.00
2024-05-09T08:03:24.221Z,41.54
2024-05-09T08:05:52.146Z,41.14
2024-05-09T08:08:20.085Z,41.84
2024-05-09T08:10:47.771Z,40.43
2024-05-09T08:13:15.384Z,41.08
2024-05-09T08:15:43.232Z,41.68
2024-05-09T08:18:11.253Z,40.22
2024-05-09T08:20:40.142Z,39.56
2024-05-09T08:23:07.640Z,39.37
2024-05-09T08:25:35.103Z,38.62
2024-05-09T08:28:04.676Z,37.32
2024-05-09T08:30:36.882Z,35.47
2024-05-09T08:33:07.038Z,37.24
2024-05-09T08:35:35.869Z,36.96
2024-05-09T08:38:05.092Z,38.06
2024-05-09T08:40:36.003Z,37.49
2024-05-09T08:43:11.232Z,36.78
2024-05-09T08:45:43.989Z,36.84
2024-05-09T08:48:15.220Z,37.21
2024-05-09T08:50:45.137Z,36.43
2024-05-09T08:53:14.987Z,35.06
2024-05-09T08:55:44.547Z,36.86
2024-05-09T08:58:15.930Z,35.27
2024-05-09T09:00:45.634Z,36.52
2024-05-09T09:03:19.079Z,35.98
2024-05-09T09:05:59.008Z,34.89
2024-05-09T09:08:26.693Z,33.17
2024-05-09T09:10:58.610Z,34.20
2024-05-09T09:13:27.405Z,33.06
2024-05-09T09:15:58.156Z,32.52
2024-05-09T09:18:27.318Z,32.85
2024-05-09T09:20:56.067Z,31.32
2024-05-09T09:23:23.844Z,34.05
2024-05-09T09:25:51.850Z,31.93
2024-05-09T09:28:23.257Z,31.68
2024-05-09T09:30:51.045Z,32.89
2024-05-09T09:33:19.246Z,30.39
2024-05-09T09:35:46.945Z,30.92
2024-05-09T09:38:21.047Z,31.66
2024-05-09T09:40:50.423Z,30.88
2024-05-09T09:43:22.419Z,27.30
2024-05-09T09:45:53.161Z,28.13
2024-05-09T09:48:22.774Z,26.45
2024-05-09T09:50:52.251Z,28.84
2024-05-09T09:53:20.519Z,28.20
2024-05-09T09:55:48.144Z,27.38
2024-05-09T09:58:19.060Z,28.20
2024-05-09T10:00:46.952Z,28.72
2024-05-09T10:03:14.677Z,29.29
2024-05-09T10:05:46.241Z,25.93
2024-05-09T10:08:17.495Z,25.35
2024-05-09T10:10:49.855Z,26.20
2024-05-09T10:13:19.747Z,23.42
2024-05-09T10:15:51.718Z,25.01
2024-05-09T10:18:25.056Z,25.22
2024-05-09T10:20:55.786Z,25.64
2024-05-09T10:23:30.194Z,25.49
2024-05-09T10:26:04.369Z,24.54
2024-05-09T10:28:33.841Z,24.45
2024-05-09T10:31:15.337Z,24.82
2024-05-09T10:33:51.588Z,23.17
2024-05-09T10:36:21.158Z,24.73
2024-05-09T10:38:50.072Z,24.19
2024-05-09T10:41:18.100Z,24.63
2024-05-09T10:43:46.378Z,23.77
2024-05-09T10:46:18.616Z,24.74
2024-05-09T10:48:47.054Z,23.04
2024-05-09T10:51:15.140Z,24.41
2024-05-09T10:53:46.870Z,23.50
2024-05-09T10:56:14.737Z,24.56
2024-05-09T10:58:42.388Z,22.86
2024-05-09T11:01:12.969Z,23.23
2024-05-09T11:03:41.006Z,23.68
2024-05-09T11:06:10.506Z,23.56
2024-05-09T11:08:38.981Z,21.90
2024-05-09T11:11:08.511Z,22.12
2024-05-09T11:13:40.427Z,22.79
2024-05-09T11:16:20.619Z,22.04
2024-05-09T11:18:56.589Z,21.96
2024-05-09T11:21:24.808Z,22.18
2024-05-09T11:23:52.529Z,23.29
2024-05-09T11:26:21.794Z,22.32
2024-05-09T11:28:50.138Z,22.71
2024-05-09T11:31:18.039Z,23.24
2024-05-09T11:33:46.405Z,22.86
2024-05-09T11:36:14.656Z,22.22
2024-05-09T11:38:42.437Z,24.55
2024-05-09T11:41:17.015Z,25.03
2024-05-09T11:43:44.644Z,22.66
2024-05-09T11:46:12.268Z,23.64
2024-05-09T11:48:39.949Z,23.02
2024-05-09T11:51:07.732Z,23.78
2024-05-09T11:53:35.156Z,23.91
2024-05-09T11:56:02.902Z,24.23
2024-05-09T11:58:34.204Z,24.49
2024-05-09T12:01:01.910Z,24.04
2024-05-09T12:03:29.604Z,24.93
2024-05-09T12:05:57.469Z,25.82
2024-05-09T12:08:26.847Z,25.60
2024-05-09T12:10:54.614Z,25.53
2024-05-09T12:13:22.289Z,25.43
2024-05-09T12:15:49.928Z,25.85
2024-05-09T12:18:17.447Z,28.13
2024-05-09T12:20:44.926Z,27.65
2024-05-09T12:23:12.467Z,28.13
2024-05-09T12:25:40.312Z,27.18
2024-05-09T12:28:08.280Z,28.17
2024-05-09T12:30:41.438Z,29.87
2024-05-09T12:33:12.470Z,27.97
2024-05-09T12:35:44.034Z,27.25
2024-05-09T12:38:14.660Z,26.99
2024-05-09T12:40:42.623Z,27.25
2024-05-09T12:43:11.368Z,28.19
2024-05-09T12:45:39.807Z,28.03
2024-05-09T12:48:11.342Z,28.60
2024-05-09T12:50:40.331Z,28.47
2024-05-09T12:53:07.968Z,28.63
2024-05-09T12:55:44.108Z,28.85
2024-05-09T12:58:17.808Z,31.02
2024-05-09T13:00:46.097Z,31.34
2024-05-09T13:03:14.256Z,29.45
2024-05-09T13:05:44.285Z,29.17
2024-05-09T13:08:12.887Z,30.89
2024-05-09T13:10:40.585Z,30.55
2024-05-09T13:13:11.706Z,31.84
2024-05-09T13:15:39.486Z,30.51
2024-05-09T13:18:07.650Z,30.89
2024-05-09T13:20:36.732Z,30.88
2024-05-09T13:23:06.351Z,31.22
2024-05-09T13:25:37.143Z,30.70
2024-05-09T13:28:06.298Z,30.73
2024-05-09T13:30:39.553Z,32.32
2024-05-09T13:33:11.675Z,31.31
2024-05-09T13:35:47.428Z,31.32
2024-05-09T13:38:19.676Z,31.03
2024-05-09T13:40:48.307Z,31.63
2024-05-09T13:43:16.192Z,30.83
2024-05-09T13:45:43.978Z,31.13
2024-05-09T13:48:11.833Z,29.96
2024-05-09T13:50:39.750Z,30.35
2024-05-09T13:53:08.362Z,30.43
2024-05-09T13:55:40.494Z,30.33
2024-05-09T13:58:09.443Z,29.77
2024-05-09T14:00:44.923Z,30.17
2024-05-09T14:03:18.665Z,30.04
2024-05-09T14:05:49.335Z,29.53
2024-05-09T14:08:19.274Z,29.30
2024-05-09T14:10:47.522Z,29.71
2024-05-09T14:13:15.731Z,29.61
2024-05-09T14:15:43.524Z,30.33
2024-05-09T14:18:13.579Z,30.74
2024-05-09T14:20:42.762Z,30.58
2024-05-09T14:23:10.790Z,31.15
2024-05-09T14:25:42.053Z,31.28
2024-05-09T14:28:12.728Z,31.84
2024-05-09T14:30:41.923Z,31.61
2024-05-09T14:33:10.962Z,31.26
2024-05-09T14:35:39.111Z,32.05
2024-05-09T14:38:07.951Z,31.43
2024-05-09T14:40:41.432Z,31.27
2024-05-09T14:43:12.717Z,29.90
2024-05-09T14:45:41.357Z,30.53
2024-05-09T14:48:09.945Z,31.37
2024-05-09T14:50:39.628Z,30.20
2024-05-09T14:53:10.399Z,29.50
2024-05-09T14:55:40.161Z,30.76
2024-05-09T14:58:10.125Z,30.50
2024-05-09T15:00:46.287Z,30.43
2024-05-09T15:03:18.737Z,29.80
2024-05-09T15:05:46.999Z,29.98
2024-05-09T15:08:16.536Z,29.60
2024-05-09T15:10:44.221Z,30.43
2024-05-09T15:13:13.465Z,30.13
2024-05-09T15:15:43.238Z,29.90
2024-05-09T15:18:11.093Z,29.86
2024-05-09T15:20:40.258Z,30.09
2024-05-09T15:23:08.007Z,30.40
2024-05-09T15:25:36.765Z,30.55
2024-05-09T15:28:07.053Z,30.76
2024-05-09T15:30:35.188Z,30.55
2024-05-09T15:33:03.912Z,30.55
2024-05-09T15:35:33.170Z,30.13
2024-05-09T15:38:02.627Z,31.52
2024-05-09T15:40:37.731Z,31.89
2024-05-09T15:43:10.043Z,30.88
2024-05-09T15:45:40.845Z,30.98
2024-05-09T15:48:09.453Z,31.24
2024-05-09T15:50:40.699Z,31.79
2024-05-09T15:53:12.033Z,32.27
2024-05-09T15:55:41.601Z,31.82
2024-05-09T15:58:10.076Z,31.91
2024-05-09T16:00:41.525Z,32.08
2024-05-09T16:03:12.402Z,32.28
2024-05-09T16:05:45.388Z,32.05
2024-05-09T16:08:14.520Z,32.40
2024-05-09T16:10:45.754Z,32.02
2024-05-09T16:13:15.291Z,31.82
2024-05-09T16:15:43.658Z,32.08
2024-05-09T16:18:11.923Z,32.45
2024-05-09T16:20:41.732Z,32.43
2024-05-09T16:23:11.146Z,32.71
2024-05-09T16:25:39.438Z,32.70
2024-05-09T16:28:10.090Z,33.41
2024-05-09T16:30:39.837Z,33.85
2024-05-09T16:33:08.707Z,34.40
2024-05-09T16:35:37.813Z,34.24
2024-05-09T16:38:08.643Z,34.09
2024-05-09T16:40:40.076Z,33.62
2024-05-09T16:43:10.773Z,33.37
2024-05-09T16:45:40.688Z,33.30
2024-05-09T16:48:08.950Z,32.85
2024-05-09T16:50:37.432Z,34.54
2024-05-09T16:53:06.279Z,34.13
2024-05-09T16:55:35.838Z,34.44
2024-05-09T16:58:05.044Z,35.10
2024-05-09T17:00:40.368Z,35.92
2024-05-09T17:03:14.298Z,37.42
2024-05-09T17:05:45.193Z,35.79
2024-05-09T17:08:14.393Z,34.74
2024-05-09T17:10:42.080Z,34.78
2024-05-09T17:13:09.928Z,35.37
2024-05-09T17:15:37.910Z,36.13
2024-05-09T17:18:07.246Z,36.36
2024-05-09T17:20:37.327Z,36.96
2024-05-09T17:23:15.155Z,37.98
2024-05-09T17:25:43.236Z,38.96
2024-05-09T17:28:11.494Z,38.75
2024-05-09T17:30:41.649Z,38.73
2024-05-09T17:33:11.642Z,39.43
2024-05-09T17:35:40.708Z,40.47
2024-05-09T17:38:08.567Z,40.55
2024-05-09T17:40:38.115Z,40.56
2024-05-09T17:43:09.412Z,41.84
2024-05-09T17:45:40.491Z,42.69
2024-05-09T17:48:09.521Z,43.06
2024-05-09T17:50:38.074Z,42.85
2024-05-09T17:53:06.646Z,43.53
2024-05-09T17:55:34.808Z,43.72
2024-05-09T17:58:03.884Z,44.98
2024-05-09T18:00:38.369Z,43.98
2024-05-09T18:03:13.341Z,44.31
2024-05-09T18:05:44.422Z,44.55
2024-05-09T18:08:13.082Z,44.56
2024-05-09T18:10:41.473Z,44.67
2024-05-09T18:13:10.923Z,44.74
2024-05-09T18:15:39.197Z,45.24
2024-05-09T18:18:07.869Z,46.68
2024-05-09T18:20:42.126Z,47.40
2024-05-09T18:23:17.846Z,48.43
2024-05-09T18:25:48.006Z,48.44
2024-05-09T18:28:16.990Z,49.04
2024-05-09T18:30:45.205Z,48.95
2024-05-09T18:33:13.112Z,49.12
2024-05-09T18:35:42.876Z,47.97
2024-05-09T18:38:10.660Z,49.67
2024-05-09T18:40:39.474Z,50.10
2024-05-09T18:43:09.184Z,51.16
2024-05-09T18:45:38.210Z,51.00
2024-05-09T18:48:08.387Z,52.00
2024-05-09T18:50:39.796Z,51.78
2024-05-09T18:53:11.741Z,51.14
2024-05-09T18:55:41.586Z,52.51
2024-05-09T18:58:09.282Z,52.63
2024-05-09T19:00:39.656Z,52.58
2024-05-09T19:03:12.392Z,52.61
2024-05-09T19:05:43.556Z,53.32
2024-05-09T19:08:12.505Z,53.94
2024-05-09T19:10:40.493Z,53.53
2024-05-09T19:13:12.039Z,54.14
2024-05-09T19:15:42.783Z,54.88
2024-05-09T19:18:12.578Z,55.12
2024-05-09T19:20:40.779Z,56.04
2024-05-09T19:23:08.328Z,56.14
2024-05-09T19:25:36.409Z,56.67
2024-05-09T19:28:05.578Z,57.01
2024-05-09T19:30:39.102Z,57.21
2024-05-09T19:33:12.850Z,57.36
2024-05-09T19:35:42.821Z,57.83
2024-05-09T19:38:11.611Z,57.45
2024-05-09T19:40:39.296Z,58.40
2024-05-09T19:43:07.040Z,56.99
2024-05-09T19:45:35.747Z,57.03
2024-05-09T19:48:05.418Z,58.93
2024-05-09T19:50:41.690Z,60.24
2024-05-09T19:53:14.059Z,60.30
2024-05-09T19:55:42.286Z,60.17
2024-05-09T19:58:10.350Z,60.36
2024-05-09T20:00:40.638Z,60.37
2024-05-09T20:03:11.688Z,60.37
2024-05-09T20:05:40.062Z,59.46
2024-05-09T20:08:07.866Z,60.97
2024-05-09T20:10:36.552Z,61.69
2024-05-09T20:13:06.684Z,62.18
2024-05-09T20:15:36.439Z,62.35
2024-05-09T20:18:04.800Z,62.14
2024-05-09T20:20:38.927Z,62.17
2024-05-09T20:23:10.607Z,62.86
2024-05-09T20:25:38.308Z,63.12
2024-05-09T20:28:07.751Z,63.21
2024-05-09T20:30:36.277Z,63.68
2024-05-09T20:33:09.474Z,63.82
2024-05-09T20:35:37.794Z,64.58
2024-05-09T20:38:05.455Z,63.82
2024-05-09T20:40:37.075Z,64.44
2024-05-09T20:43:10.323Z,64.59
2024-05-09T20:45:39.847Z,64.77
2024-05-09T20:48:08.751Z,64.82
2024-05-09T20:50:40.590Z,64.95
2024-05-09T20:53:11.861Z,64.97
2024-05-09T20:55:40.203Z,65.32
2024-05-09T20:58:08.308Z,65.91
2024-05-09T21:00:40.316Z,66.08
2024-05-09T21:03:13.146Z,66.81
2024-05-09T21:05:41.933Z,67.42
2024-05-09T21:08:09.613Z,66.88
2024-05-09T21:10:37.661Z,66.72
2024-05-09T21:13:06.527Z,66.66
2024-05-09T21:15:34.986Z,66.78
2024-05-09T21:18:03.590Z,66.70
2024-05-09T21:20:33.348Z,66.86
2024-05-09T21:23:01.912Z,67.05
2024-05-09T21:25:30.714Z,67.72
2024-05-09T21:27:58.540Z,67.89
2024-05-09T21:30:37.032Z,67.79
2024-05-09T21:33:10.491Z,68.16
2024-05-09T21:35:40.698Z,68.79
2024-05-09T21:38:08.421Z,68.70
2024-05-09T21:40:37.873Z,68.70
2024-05-09T21:43:07.639Z,68.96
2024-05-09T21:45:36.244Z,69.27
2024-05-09T21:48:05.183Z,69.26
2024-05-09T21:50:39.588Z,67.71
2024-05-09T21:53:13.284Z,68.31
2024-05-09T21:55:46.835Z,70.06
2024-05-09T21:58:14.864Z,71.22
2024-05-09T22:00:45.525Z,71.33
2024-05-09T22:03:13.661Z,70.92
2024-05-09T22:05:43.293Z,70.54
2024-05-09T22:08:10.735Z,70.81
2024-05-09T22:10:38.672Z,72.40
2024-05-09T22:13:07.396Z,72.10
2024-05-09T22:15:38.191Z,71.23
2024-05-09T22:18:07.457Z,71.25
2024-05-09T22:20:38.448Z,71.96
2024-05-09T22:23:08.278Z,72.01
2024-05-09T22:25:36.912Z,71.97
2024-05-09T22:28:05.556Z,71.69
2024-05-09T22:30:37.316Z,72.32
2024-05-09T22:33:08.450Z,72.56
2024-05-09T22:35:37.204Z,72.43
2024-05-09T22:38:05.001Z,73.30
2024-05-09T22:40:42.253Z,72.79
2024-05-09T22:43:23.990Z,74.98
2024-05-09T22:45:54.570Z,74.93
2024-05-09T22:48:23.550Z,73.94
2024-05-09T22:50:51.707Z,73.37
2024-05-09T22:53:21.842Z,73.21
2024-05-09T22:55:49.372Z,72.95
2024-05-09T22:58:17.225Z,73.07
2024-05-09T23:00:44.808Z,73.41
2024-05-09T23:03:15.535Z,73.76
2024-05-09T23:05:43.446Z,73.71
2024-05-09T23:08:10.970Z,73.83
2024-05-09T23:10:38.652Z,73.67
2024-05-09T23:13:07.785Z,73.59
2024-05-09T23:15:38.188Z,73.82
2024-05-09T23:18:06.936Z,74.91
2024-05-09T23:20:38.504Z,74.58
2024-05-09T23:23:09.785Z,74.83
2024-05-09T23:25:38.709Z,74.64
2024-05-09T23:28:06.952Z,74.36
2024-05-09T23:30:38.649Z,74.05
2024-05-09T23:33:12.955Z,74.40
2024-05-09T23:35:43.097Z,74.54
2024-05-09T23:38:10.675Z,74.44
2024-05-09T23:40:40.728Z,74.94
2024-05-09T23:43:10.483Z,75.04
2024-05-09T23:45:38.698Z,75.23
2024-05-09T23:48:07.348Z,75.03
2024-05-09T23:50:37.795Z,75.49
2024-05-09T23:53:08.782Z,75.21
2024-05-09T23:55:37.528Z,75.17
2024-05-09T23:58:06.230Z,75.73
